createdAt,value
2019-04-14T00:02:49.216Z,14.47
2019-04-14T00:07:34.877Z,15.10
2019-04-14T00:12:23.004Z,15.70
2019-04-14T00:17:08.807Z,17.13
2019-04-14T00:21:54.416Z,15.07
2019-04-14T00:26:40.253Z,17.17
2019-04-14T00:31:26.259Z,17.47
2019-04-14T00:36:17.624Z,16.33
2019-04-14T00:41:11.576Z,15.27
2019-04-14T00:46:04.323Z,17.53
2019-04-14T00:50:49.723Z,17.07
2019-04-14T00:55:34.335Z,17.47
2019-04-14T01:00:20.404Z,19.10
2019-04-14T01:05:06.605Z,17.40
2019-04-14T01:09:51.575Z,16.80
2019-04-14T01:14:37.057Z,17.43
2019-04-14T01:19:22.042Z,18.60
2019-04-14T01:24:07.522Z,18.90
2019-04-14T01:28:52.698Z,21.33
2019-04-14T01:33:37.958Z,18.73
2019-04-14T01:38:23.380Z,18.80
2019-04-14T01:43:09.974Z,18.10
2019-04-14T01:47:55.333Z,20.50
2019-04-14T01:52:52.622Z,18.13
2019-04-14T01:57:59.103Z,19.43
2019-04-14T02:02:44.333Z,18.90
2019-04-14T02:07:29.744Z,19.07
2019-04-14T02:12:14.884Z,20.27
2019-04-14T02:17:02.500Z,21.47
2019-04-14T02:21:45.989Z,23.67
2019-04-14T02:26:30.953Z,23.40
2019-04-14T02:31:39.180Z,23.97
2019-04-14T02:36:30.336Z,25.50
2019-04-14T02:41:18.731Z,24.17
2019-04-14T02:46:10.019Z,21.97
2019-04-14T02:50:48.208Z,24.20
2019-04-14T02:55:34.177Z,25.27
2019-04-14T03:00:25.846Z,19.90
2019-04-14T03:05:05.487Z,23.53
2019-04-14T03:09:52.375Z,23.47
2019-04-14T03:14:47.431Z,23.30
2019-04-14T03:19:46.539Z,26.87
2019-04-14T03:24:32.812Z,24.13
2019-04-14T03:29:20.943Z,22.40
2019-04-14T03:34:30.255Z,17.53
2019-04-14T03:39:00.543Z,14.90
2019-04-14T03:43:36.991Z,13.87
2019-04-14T03:48:56.573Z,10.80
2019-04-14T03:53:15.846Z,8.57
2019-04-14T03:57:34.533Z,9.13
2019-04-14T04:02:20.366Z,9.63
2019-04-14T04:07:06.225Z,9.93
2019-04-14T04:11:51.908Z,9.73
2019-04-14T04:16:55.130Z,10.07
2019-04-14T04:21:57.459Z,10.80
2019-04-14T04:26:58.169Z,10.23
2019-04-14T04:32:03.502Z,10.80
2019-04-14T04:37:08.192Z,11.50
2019-04-14T04:41:53.750Z,9.60
2019-04-14T04:46:39.470Z,9.43
2019-04-14T04:51:24.611Z,9.17
2019-04-14T04:56:12.614Z,8.33
2019-04-14T05:00:59.602Z,9.20
2019-04-14T05:06:09.270Z,7.13
2019-04-14T05:11:01.046Z,8.13
2019-04-14T05:15:53.661Z,7.57
2019-04-14T05:20:39.785Z,7.97
2019-04-14T05:25:25.367Z,8.37
2019-04-14T05:30:11.178Z,7.97
2019-04-14T05:34:56.540Z,7.97
2019-04-14T05:39:41.893Z,8.80
2019-04-14T05:44:40.394Z,8.50
2019-04-14T05:49:38.074Z,8.10
2019-04-14T05:54:16.382Z,7.50
2019-04-14T05:59:04.408Z,8.07
2019-04-14T06:03:49.711Z,10.03
2019-04-14T06:08:35.161Z,10.57
2019-04-14T06:13:20.198Z,8.87
2019-04-14T06:18:04.915Z,9.07
2019-04-14T06:22:49.645Z,10.00
2019-04-14T06:27:48.617Z,9.33
2019-04-14T06:32:42.607Z,12.90
2019-04-14T06:37:40.733Z,9.27
2019-04-14T06:42:26.666Z,9.10
2019-04-14T06:47:15.218Z,8.20
2019-04-14T06:52:06.501Z,7.87
2019-04-14T06:56:51.422Z,8.10
2019-04-14T07:01:39.090Z,9.03
2019-04-14T07:06:24.230Z,10.10
2019-04-14T07:11:15.232Z,8.60
2019-04-14T07:16:00.193Z,8.70
2019-04-14T07:20:47.887Z,10.40
2019-04-14T07:25:33.068Z,8.93
2019-04-14T07:30:48.442Z,10.10
2019-04-14T07:36:03.010Z,11.27
2019-04-14T07:41:07.290Z,9.00
2019-04-14T07:46:14.131Z,8.80
2019-04-14T07:51:17.755Z,9.97
2019-04-14T07:56:10.648Z,10.47
2019-04-14T08:01:08.796Z,11.20
2019-04-14T08:05:55.481Z,9.33
2019-04-14T08:10:40.337Z,15.20
2019-04-14T08:15:25.366Z,10.67
2019-04-14T08:20:10.619Z,13.07
2019-04-14T08:25:16.914Z,12.67
2019-04-14T08:30:01.784Z,15.37
2019-04-14T08:34:46.514Z,12.53
2019-04-14T08:39:31.276Z,11.67
2019-04-14T08:44:30.278Z,14.00
2019-04-14T08:49:36.561Z,13.93
2019-04-14T08:54:52.227Z,13.60
2019-04-14T08:59:49.279Z,13.20
2019-04-14T09:04:56.190Z,12.47
2019-04-14T09:09:43.476Z,14.00
2019-04-14T09:14:28.472Z,14.27
2019-04-14T09:24:58.018Z,13.60
2019-04-14T09:29:43.592Z,13.13
2019-04-14T09:34:28.923Z,12.03
2019-04-14T09:39:14.350Z,11.53
2019-04-14T09:44:07.701Z,14.37
2019-04-14T09:48:54.825Z,12.50
2019-04-14T09:54:44.979Z,11.87
2019-04-14T09:59:32.500Z,11.67
2019-04-14T10:04:21.859Z,11.87
2019-04-14T10:09:08.644Z,12.20
2019-04-14T10:13:54.171Z,15.90
2019-04-14T10:18:39.702Z,11.70
2019-04-14T10:23:25.013Z,13.80
2019-04-14T10:28:09.878Z,15.37
2019-04-14T10:32:55.178Z,16.83
2019-04-14T10:37:40.453Z,16.23
2019-04-14T10:42:25.468Z,17.60
2019-04-14T10:47:10.717Z,21.20
2019-04-14T10:51:55.978Z,18.27
2019-04-14T10:56:41.534Z,22.47
2019-04-14T11:01:51.452Z,19.73
2019-04-14T11:07:00.919Z,22.53
2019-04-14T11:11:52.768Z,23.33
2019-04-14T11:16:47.517Z,23.80
2019-04-14T11:21:42.497Z,26.97
2019-04-14T11:26:27.544Z,26.70
2019-04-14T11:31:14.213Z,26.63
2019-04-14T11:36:04.690Z,30.30
2019-04-14T11:40:55.351Z,29.60
2019-04-14T11:45:43.796Z,30.37
2019-04-14T11:50:28.954Z,20.30
2019-04-14T11:55:14.135Z,22.67
2019-04-14T12:00:21.269Z,26.73
2019-04-14T12:05:18.928Z,23.47
2019-04-14T12:10:13.226Z,25.23
2019-04-14T12:14:58.318Z,26.93
2019-04-14T12:19:43.454Z,24.33
2019-04-14T12:24:28.885Z,29.43
2019-04-14T12:29:14.129Z,27.43
2019-04-14T12:34:02.252Z,24.77
2019-04-14T12:38:47.578Z,23.13
2019-04-14T12:43:44.332Z,25.47
2019-04-14T12:48:34.792Z,20.67
2019-04-14T12:53:20.098Z,24.90
2019-04-14T12:58:06.305Z,26.60
2019-04-14T13:02:52.495Z,26.37
2019-04-14T13:07:37.373Z,27.97
2019-04-14T13:12:22.469Z,26.00
2019-04-14T13:17:07.273Z,30.90
2019-04-14T13:21:52.365Z,34.97
2019-04-14T13:26:37.400Z,39.73
2019-04-14T13:31:22.482Z,37.47
2019-04-14T13:36:07.513Z,40.07
2019-04-14T13:40:52.396Z,40.00
2019-04-14T13:45:37.654Z,40.13
2019-04-14T13:50:22.479Z,43.47
2019-04-14T13:55:08.413Z,33.80
2019-04-14T13:59:53.209Z,35.13
2019-04-14T14:04:38.436Z,34.47
2019-04-14T14:09:23.582Z,33.90
2019-04-14T14:14:16.865Z,32.57
2019-04-14T14:19:34.170Z,31.80
2019-04-14T14:24:27.369Z,32.97
2019-04-14T14:29:12.621Z,30.20
2019-04-14T14:33:58.884Z,32.40
2019-04-14T14:38:43.952Z,29.17
2019-04-14T14:43:29.843Z,29.47
2019-04-14T14:48:19.692Z,27.93
2019-04-14T14:53:11.969Z,30.40
2019-04-14T14:57:51.226Z,31.07
2019-04-14T15:02:36.121Z,27.53
2019-04-14T15:07:21.385Z,25.73
2019-04-14T15:12:06.168Z,27.93
2019-04-14T15:16:51.002Z,27.17
2019-04-14T15:21:36.302Z,30.53
2019-04-14T15:26:21.437Z,29.53
2019-04-14T15:31:06.815Z,30.53
2019-04-14T15:35:52.721Z,29.00
2019-04-14T15:40:37.712Z,27.83
2019-04-14T15:45:22.658Z,26.13
2019-04-14T15:50:08.676Z,27.40
2019-04-14T15:54:53.628Z,26.13
2019-04-14T16:00:09.741Z,25.47
2019-04-14T16:05:09.264Z,23.97
2019-04-14T16:10:18.959Z,26.23
2019-04-14T16:15:26.025Z,28.20
2019-04-14T16:20:14.965Z,29.27
2019-04-14T16:28:56.438Z,29.07
2019-04-14T16:33:59.101Z,30.48
2019-04-14T16:38:44.156Z,32.47
2019-04-14T16:43:29.185Z,31.97
2019-04-14T16:48:14.280Z,32.27
2019-04-14T16:53:12.501Z,32.37
2019-04-14T16:58:18.653Z,36.30
2019-04-14T17:03:03.452Z,30.97
2019-04-14T17:07:53.682Z,32.93
2019-04-14T17:12:38.971Z,33.37
2019-04-14T17:17:52.389Z,33.83
2019-04-14T17:22:48.270Z,34.37
2019-04-14T17:27:52.249Z,32.77
2019-04-14T17:32:54.651Z,32.33
2019-04-14T17:37:50.724Z,42.20
2019-04-14T17:42:49.414Z,34.43
2019-04-14T17:47:41.860Z,37.27
2019-04-14T17:52:29.347Z,31.27
2019-04-14T17:57:31.795Z,32.37
2019-04-14T18:02:25.435Z,32.03
2019-04-14T18:07:29.242Z,30.53
2019-04-14T18:12:48.634Z,30.03
2019-04-14T18:17:58.292Z,28.97
2019-04-14T18:22:43.068Z,29.33
2019-04-14T18:27:28.131Z,24.27
2019-04-14T18:32:26.980Z,24.40
2019-04-14T18:37:29.667Z,24.37
2019-04-14T18:42:33.932Z,23.30
2019-04-14T18:47:25.488Z,22.00
2019-04-14T18:52:16.798Z,22.70
2019-04-14T18:57:30.197Z,20.10
2019-04-14T19:02:17.710Z,21.83
2019-04-14T19:07:02.912Z,29.80
2019-04-14T19:12:06.991Z,33.87
2019-04-14T19:16:58.750Z,39.37
2019-04-14T19:21:45.613Z,32.87
2019-04-14T19:26:30.541Z,31.90
2019-04-14T19:31:15.511Z,30.93
2019-04-14T19:36:00.555Z,29.10
2019-04-14T19:40:47.323Z,30.67
2019-04-14T19:45:32.379Z,29.60
2019-04-14T19:50:17.296Z,35.27
2019-04-14T19:55:02.582Z,53.43
2019-04-14T19:59:47.642Z,87.27
2019-04-14T20:04:32.924Z,92.27
2019-04-14T20:09:17.687Z,53.40
2019-04-14T20:14:02.835Z,56.63
2019-04-14T20:19:18.882Z,54.17
2019-04-14T20:24:18.187Z,73.70
2019-04-14T20:29:15.309Z,114.87
2019-04-14T20:34:00.230Z,52.57
2019-04-14T20:38:44.972Z,43.10
2019-04-14T20:43:30.269Z,35.60
2019-04-14T20:48:15.104Z,36.70
2019-04-14T20:53:00.034Z,34.50
2019-04-14T20:57:45.039Z,32.43
2019-04-14T21:02:48.853Z,29.83
2019-04-14T21:07:58.568Z,30.20
2019-04-14T21:12:57.713Z,30.93
2019-04-14T21:17:53.579Z,29.67
2019-04-14T21:22:43.144Z,29.80
2019-04-14T21:27:52.927Z,31.00
2019-04-14T21:32:42.480Z,26.63
2019-04-14T21:37:52.364Z,28.67
2019-04-14T21:42:37.389Z,27.80
2019-04-14T21:47:22.650Z,28.97
2019-04-14T21:52:24.946Z,27.03
2019-04-14T21:57:28.723Z,24.03
2019-04-14T22:02:32.576Z,24.73
2019-04-14T22:07:35.014Z,28.30
2019-04-14T22:12:20.238Z,25.30
2019-04-14T22:17:05.294Z,26.60
2019-04-14T22:21:50.376Z,28.77
2019-04-14T22:26:35.388Z,28.43
2019-04-14T22:31:20.250Z,28.30
2019-04-14T22:36:05.140Z,29.20
2019-04-14T22:40:49.970Z,28.17
2019-04-14T22:45:35.062Z,26.33
2019-04-14T22:50:20.171Z,30.87
2019-04-14T22:55:05.582Z,29.93
2019-04-14T22:59:50.504Z,28.83
2019-04-14T23:05:00.073Z,30.20
2019-04-14T23:09:56.255Z,29.03
2019-04-14T23:14:58.582Z,25.67
2019-04-14T23:20:22.994Z,28.37
2019-04-14T23:25:07.364Z,29.80
2019-04-14T23:29:52.239Z,28.63
2019-04-14T23:34:37.066Z,26.67
2019-04-14T23:39:22.093Z,25.40
2019-04-14T23:44:07.064Z,25.60
2019-04-14T23:48:52.109Z,24.40
2019-04-14T23:53:36.798Z,25.13
2019-04-14T23:58:21.864Z,26.30
